Time;durP1;ratioP1;P1;durP2;ratioP2;P2;SDS_P1;SDS_P2;PMS_P1;PMS_P2;Temp;Humidity;BMP_temperature;BMP_pressure;BME280_temperature;BME280_humidity;BME280_pressure;Samples;Min_cycle;Max_cycle;Signal;HPM_P1;HPM_P2
2023/12/10 07:23:18;;;;;;;9.63;0.83;;;9.00;99.90;;;;;;4701049;23;20238;-71
2023/12/10 07:25:45;;;;;;;9.73;0.90;;;9.00;99.90;;;;;;4898787;29;20704;-71
2023/12/10 07:28:12;;;;;;;7.23;1.30;;;9.00;99.90;;;;;;4900516;29;20248;-71
2023/12/10 07:30:39;;;;;;;11.73;1.20;;;9.00;99.90;;;;;;4900121;29;20231;-71
2023/12/10 07:33:06;;;;;;;5.33;1.20;;;9.00;99.90;;;;;;4900496;29;20297;-71
2023/12/10 07:35:33;;;;;;;13.67;2.27;;;9.00;99.90;;;;;;4900316;29;20298;-71
2023/12/10 07:38:00;;;;;;;6.27;0.90;;;8.90;99.90;;;;;;4900489;29;20249;-71
2023/12/10 07:40:29;;;;;;;18.43;1.53;;;9.00;99.90;;;;;;4899943;29;20705;-71
2023/12/10 07:42:56;;;;;;;6.90;1.93;;;9.10;99.90;;;;;;4887931;29;20321;-71
2023/12/10 07:45:23;;;;;;;8.83;1.60;;;9.10;99.90;;;;;;4899926;29;20245;-71
2023/12/10 07:47:50;;;;;;;14.40;1.30;;;9.00;99.90;;;;;;4900234;29;20210;-71
2023/12/10 07:50:17;;;;;;;13.93;1.57;;;9.10;99.90;;;;;;4895203;29;20231;-71
2023/12/10 07:52:44;;;;;;;7.53;1.27;;;9.10;99.90;;;;;;4889069;29;20290;-71
2023/12/10 07:55:11;;;;;;;6.47;1.03;;;9.10;99.90;;;;;;4900078;29;20266;-71
2023/12/10 07:57:39;;;;;;;5.80;1.00;;;9.10;99.90;;;;;;4899965;29;20210;-71
2023/12/10 08:00:07;;;;;;;14.20;1.20;;;9.00;99.90;;;;;;4899664;29;20270;-71
2023/12/10 08:02:34;;;;;;;4.07;1.33;;;9.00;99.90;;;;;;4899762;29;20319;-71
2023/12/10 08:05:03;;;;;;;10.83;1.43;;;9.00;99.90;;;;;;4898975;29;20238;-71
2023/12/10 08:07:30;;;;;;;7.77;0.97;;;9.00;99.90;;;;;;4899514;29;20305;-71
2023/12/10 08:09:57;;;;;;;9.23;1.00;;;9.10;99.90;;;;;;4899704;29;20315;-71
2023/12/10 08:12:23;;;;;;;4.97;0.93;;;9.10;99.90;;;;;;4899330;29;20266;-71
2023/12/10 08:14:52;;;;;;;5.77;1.43;;;9.10;99.90;;;;;;4899777;29;20681;-71
2023/12/10 08:17:19;;;;;;;5.23;1.13;;;9.10;99.90;;;;;;4899218;29;20203;-71
2023/12/10 08:19:46;;;;;;;8.47;0.97;;;9.10;99.90;;;;;;4899501;29;20226;-71
2023/12/10 08:22:13;;;;;;;6.40;1.30;;;9.20;99.90;;;;;;4899308;29;20308;-71
2023/12/10 08:24:40;;;;;;;6.03;1.03;;;9.20;99.90;;;;;;4894001;29;20262;-71
2023/12/10 08:27:07;;;;;;;9.13;1.00;;;9.30;99.90;;;;;;4898890;29;20258;-71
2023/12/10 08:29:34;;;;;;;11.30;1.50;;;9.20;99.90;;;;;;4899473;29;20230;-71
2023/12/10 08:32:03;;;;;;;6.30;1.10;;;9.30;99.90;;;;;;4899104;29;20290;-71
2023/12/10 08:34:29;;;;;;;8.93;1.10;;;9.40;99.90;;;;;;4899219;29;20207;-71
2023/12/10 08:36:56;;;;;;;7.80;1.53;;;9.30;99.90;;;;;;4898790;29;20206;-71
2023/12/10 08:39:23;;;;;;;17.83;2.20;;;9.40;99.90;;;;;;4899039;29;20270;-71
2023/12/10 08:41:50;;;;;;;5.83;1.57;;;9.40;99.90;;;;;;4899057;29;20647;-71
2023/12/10 08:44:17;;;;;;;10.60;1.73;;;9.40;99.90;;;;;;4899618;29;20281;-71
2023/12/10 08:46:44;;;;;;;5.63;0.80;;;9.40;99.90;;;;;;4898683;29;20634;-71
2023/12/10 08:49:12;;;;;;;9.90;1.20;;;9.50;99.90;;;;;;4898740;29;20253;-71
2023/12/10 08:51:39;;;;;;;5.50;1.57;;;9.50;99.90;;;;;;4898818;29;20266;-71
2023/12/10 08:54:07;;;;;;;11.03;1.43;;;9.50;99.90;;;;;;4898722;29;20214;-71
2023/12/10 08:56:34;;;;;;;9.17;1.10;;;9.60;99.90;;;;;;4898601;29;20214;-71
2023/12/10 08:59:01;;;;;;;13.67;1.20;;;9.60;99.90;;;;;;4898920;29;20737;-71
2023/12/10 09:01:28;;;;;;;4.53;1.13;;;9.60;99.90;;;;;;4897495;29;20258;-71
2023/12/10 09:03:55;;;;;;;8.77;1.73;;;9.60;99.90;;;;;;4898979;29;20663;-71
2023/12/10 09:06:23;;;;;;;12.57;1.80;;;9.70;99.90;;;;;;4898511;29;20218;-71
2023/12/10 09:08:50;;;;;;;7.67;1.43;;;9.60;99.90;;;;;;4898876;29;20673;-71
2023/12/10 09:11:17;;;;;;;9.53;1.50;;;9.70;99.90;;;;;;4899258;29;20234;-70
2023/12/10 09:13:44;;;;;;;12.07;1.53;;;9.70;99.90;;;;;;4899064;29;20287;-71
2023/12/10 09:16:11;;;;;;;14.30;1.30;;;9.70;99.90;;;;;;4898715;29;20241;-70
2023/12/10 09:18:38;;;;;;;13.67;2.10;;;9.70;99.90;;;;;;4898856;29;20210;-70
2023/12/10 09:21:07;;;;;;;8.37;1.80;;;9.70;99.90;;;;;;4898771;29;20230;-71
2023/12/10 09:23:35;;;;;;;8.27;2.30;;;9.70;99.90;;;;;;4898739;29;20249;-71
2023/12/10 09:26:02;;;;;;;10.37;1.87;;;9.80;99.90;;;;;;4898702;29;20206;-71
2023/12/10 09:28:29;;;;;;;9.33;1.47;;;9.90;99.90;;;;;;4898329;29;20681;-71
2023/12/10 09:30:56;;;;;;;11.90;1.90;;;9.90;99.90;;;;;;4898420;29;20314;-71
2023/12/10 09:33:23;;;;;;;10.07;2.03;;;10.00;99.90;;;;;;4898627;29;20246;-70
2023/12/10 09:35:50;;;;;;;9.33;1.37;;;10.00;99.90;;;;;;4898667;29;20274;-70
2023/12/10 09:38:17;;;;;;;9.10;1.47;;;10.00;99.90;;;;;;4898259;29;20210;-70
2023/12/10 09:40:45;;;;;;;12.43;1.27;;;10.00;99.90;;;;;;4898551;29;20299;-71
2023/12/10 09:43:12;;;;;;;9.60;1.30;;;10.00;99.90;;;;;;4898408;29;20274;-71
2023/12/10 09:45:39;;;;;;;11.57;1.67;;;10.00;99.90;;;;;;4898537;29;20314;-71
2023/12/10 09:48:07;;;;;;;10.57;1.30;;;10.00;99.90;;;;;;4898194;29;20717;-71
2023/12/10 09:50:38;;;;;;;10.67;1.50;;;10.10;99.90;;;;;;4898474;29;20238;-71
2023/12/10 09:53:05;;;;;;;12.83;1.57;;;10.10;99.90;;;;;;4898679;29;20210;-71
2023/12/10 09:55:32;;;;;;;10.77;1.67;;;10.00;99.90;;;;;;4898200;29;20661;-71
2023/12/10 09:58:00;;;;;;;11.50;2.27;;;10.10;99.90;;;;;;4898402;29;20214;-71
2023/12/10 10:00:28;;;;;;;15.47;1.93;;;10.10;99.90;;;;;;4898036;29;20282;-71
2023/12/10 10:03:01;;;;;;;8.40;1.27;;;10.30;99.90;;;;;;4897841;29;20332;-71
2023/12/10 10:05:27;;;;;;;21.47;1.87;;;10.40;99.90;;;;;;4898151;29;20296;-71
2023/12/10 10:07:55;;;;;;;11.13;1.70;;;10.40;99.90;;;;;;4898223;29;20210;-71
2023/12/10 10:10:22;;;;;;;9.73;2.20;;;10.40;99.90;;;;;;4897795;29;20227;-71
2023/12/10 10:12:49;;;;;;;15.77;2.03;;;10.40;99.90;;;;;;4897898;29;20210;-71
2023/12/10 10:15:26;;;;;;;8.97;1.53;;;10.40;99.90;;;;;;4897919;29;20238;-71
2023/12/10 10:17:53;;;;;;;11.03;1.90;;;10.40;99.90;;;;;;4897901;29;20214;-71
2023/12/10 10:20:22;;;;;;;12.63;1.30;;;10.40;99.90;;;;;;4898046;29;20325;-71
2023/12/10 10:22:49;;;;;;;15.40;1.80;;;10.40;99.90;;;;;;4897656;29;20659;-70
2023/12/10 10:25:16;;;;;;;11.30;1.63;;;10.60;99.90;;;;;;4897854;29;20300;-70
2023/12/10 10:27:43;;;;;;;7.80;1.60;;;10.60;99.90;;;;;;4897723;29;20294;-71
2023/12/10 10:30:10;;;;;;;10.20;1.30;;;10.60;99.90;;;;;;4897100;29;20259;-71
2023/12/10 10:32:40;;;;;;;8.70;2.07;;;10.70;99.90;;;;;;4898022;29;20218;-70
2023/12/10 10:35:08;;;;;;;10.40;1.60;;;10.70;99.90;;;;;;4897932;29;20665;-71
2023/12/10 10:37:35;;;;;;;13.97;1.43;;;10.70;99.90;;;;;;4898125;29;20214;-70
2023/12/10 10:40:04;;;;;;;12.23;2.60;;;10.70;99.90;;;;;;4897492;29;20257;-71
2023/12/10 10:42:31;;;;;;;11.87;1.40;;;10.60;99.90;;;;;;4897642;29;20269;-71
2023/12/10 10:44:58;;;;;;;10.73;1.07;;;10.50;99.90;;;;;;4897633;29;20288;-73
2023/12/10 10:47:28;;;;;;;11.10;1.83;;;10.50;99.90;;;;;;4897698;29;20269;-71
2023/12/10 10:49:59;;;;;;;7.87;1.00;;;10.50;99.90;;;;;;4897694;29;20590;-71
2023/12/10 10:52:28;;;;;;;9.03;2.20;;;10.60;99.90;;;;;;4897767;29;20210;-70
2023/12/10 10:54:57;;;;;;;5.50;0.90;;;10.60;99.90;;;;;;4897631;29;20297;-71
2023/12/10 10:57:31;;;;;;;5.83;1.43;;;10.60;99.90;;;;;;4897650;29;20210;-71
2023/12/10 10:59:58;;;;;;;11.93;1.40;;;10.70;99.90;;;;;;4897707;29;20226;-71
2023/12/10 11:02:25;;;;;;;12.30;1.80;;;10.70;99.90;;;;;;4897686;29;20631;-72
2023/12/10 11:04:52;;;;;;;10.70;1.97;;;10.80;99.90;;;;;;4897779;29;20604;-72
2023/12/10 11:07:24;;;;;;;6.67;1.03;;;10.90;99.90;;;;;;4897458;29;20665;-71
2023/12/10 11:09:57;;;;;;;9.70;1.20;;;10.90;99.90;;;;;;4897373;29;20237;-71
2023/12/10 11:12:47;;;;;;;8.30;1.50;;;11.00;99.90;;;;;;4897575;29;20214;-71
2023/12/10 11:15:23;;;;;;;5.33;1.30;;;11.20;99.90;;;;;;4897370;29;20207;-71
2023/12/10 11:17:52;;;;;;;10.80;1.90;;;11.40;99.90;;;;;;4897192;29;20545;-72
2023/12/10 11:20:36;;;;;;;7.97;1.47;;;11.50;99.90;;;;;;4897359;29;20234;-71
2023/12/10 11:23:06;;;;;;;9.20;1.03;;;11.60;99.90;;;;;;4897474;29;20230;-71
2023/12/10 11:25:33;;;;;;;7.07;1.20;;;11.70;99.90;;;;;;4897569;29;20219;-72
2023/12/10 11:28:02;;;;;;;7.87;1.10;;;11.70;99.90;;;;;;4897500;29;20210;-71
2023/12/10 11:30:29;;;;;;;9.30;1.30;;;11.70;99.90;;;;;;4897329;29;20226;-71
2023/12/10 11:32:56;;;;;;;12.77;1.87;;;11.70;99.90;;;;;;4897284;29;20242;-71
2023/12/10 11:35:23;;;;;;;8.80;1.23;;;11.70;99.90;;;;;;4897194;29;20253;-71
2023/12/10 11:37:50;;;;;;;9.07;1.20;;;11.70;99.90;;;;;;4897420;29;20219;-72
2023/12/10 11:40:18;;;;;;;12.03;1.10;;;11.50;99.90;;;;;;4898611;29;20302;-71
2023/12/10 11:42:45;;;;;;;9.83;1.83;;;11.50;99.90;;;;;;4900319;29;20214;-71
2023/12/10 11:45:13;;;;;;;8.37;1.63;;;11.50;99.90;;;;;;4900904;29;20305;-71
2023/12/10 11:47:43;;;;;;;5.87;1.00;;;11.50;99.90;;;;;;4900626;29;20210;-71
2023/12/10 11:50:10;;;;;;;8.17;2.20;;;11.40;99.90;;;;;;4900370;29;20222;-71
2023/12/10 11:52:37;;;;;;;12.37;2.63;;;11.40;99.90;;;;;;4900634;29;20210;-72
2023/12/10 11:55:07;;;;;;;10.50;1.37;;;11.40;99.90;;;;;;4900264;29;20704;-72
2023/12/10 11:57:42;;;;;;;12.87;1.60;;;11.40;99.90;;;;;;4900362;29;20270;-72
2023/12/10 12:00:11;;;;;;;7.93;1.60;;;11.50;99.90;;;;;;4900327;29;20229;-72
2023/12/10 12:02:41;;;;;;;10.47;2.87;;;11.60;99.90;;;;;;4900525;29;20237;-72
2023/12/10 12:05:09;;;;;;;15.27;1.80;;;11.70;99.90;;;;;;4900187;29;20216;-72
2023/12/10 12:07:37;;;;;;;12.20;1.60;;;11.90;99.90;;;;;;4899920;29;20250;-71
2023/12/10 12:10:05;;;;;;;10.57;1.50;;;11.80;99.90;;;;;;4899472;29;20373;-71
2023/12/10 12:12:36;;;;;;;11.70;2.37;;;11.90;99.90;;;;;;4899422;29;20278;-72
2023/12/10 12:15:06;;;;;;;9.13;2.10;;;12.00;99.90;;;;;;4899336;29;20749;-72
2023/12/10 12:17:33;;;;;;;7.73;1.50;;;12.00;99.90;;;;;;4887504;29;20266;-72
2023/12/10 12:20:14;;;;;;;13.40;1.47;;;12.00;99.90;;;;;;4893925;29;20223;-72
2023/12/10 12:22:41;;;;;;;7.07;1.37;;;12.00;99.90;;;;;;4899265;29;20234;-71
2023/12/10 12:25:08;;;;;;;6.13;1.30;;;11.80;99.90;;;;;;4899928;29;20246;-72
2023/12/10 12:27:35;;;;;;;16.57;1.60;;;11.70;99.90;;;;;;4901170;29;20210;-72
2023/12/10 12:30:02;;;;;;;6.33;1.23;;;11.70;99.90;;;;;;4899129;29;20757;-73
2023/12/10 12:32:31;;;;;;;10.77;2.67;;;11.60;99.90;;;;;;4898668;29;20210;-72
2023/12/10 12:34:58;;;;;;;5.60;1.20;;;11.50;99.90;;;;;;4899484;29;20218;-71
2023/12/10 12:37:25;;;;;;;12.37;1.57;;;11.60;99.90;;;;;;4899238;29;20273;-72
2023/12/10 12:39:53;;;;;;;7.47;1.10;;;11.70;99.90;;;;;;4898995;29;20799;-72
2023/12/10 12:42:20;;;;;;;4.00;0.70;;;11.70;99.90;;;;;;4898748;29;20262;-72
2023/12/10 12:44:48;;;;;;;6.90;1.20;;;11.60;99.90;;;;;;4898980;29;20274;-71
2023/12/10 12:47:15;;;;;;;7.10;1.17;;;11.50;99.90;;;;;;4898669;29;20249;-72
2023/12/10 12:49:43;;;;;;;8.50;1.03;;;11.50;99.90;;;;;;4891587;29;20326;-72
2023/12/10 12:52:10;;;;;;;14.40;2.63;;;11.60;99.90;;;;;;4888615;29;20270;-72
2023/12/10 12:54:38;;;;;;;10.33;1.20;;;11.50;99.90;;;;;;4898453;29;20263;-72
2023/12/10 12:57:04;;;;;;;12.87;2.53;;;11.40;99.90;;;;;;4898781;29;20262;-72
2023/12/10 12:59:31;;;;;;;8.47;0.83;;;11.20;99.90;;;;;;4898789;29;20282;-72
2023/12/10 13:01:58;;;;;;;9.93;1.77;;;11.10;99.90;;;;;;4898924;29;20211;-72
2023/12/10 13:04:25;;;;;;;14.77;1.50;;;11.00;99.90;;;;;;4898568;29;20238;-72
2023/12/10 13:06:54;;;;;;;5.03;1.20;;;11.10;99.90;;;;;;4898682;29;20239;-72
2023/12/10 13:09:21;;;;;;;6.27;1.20;;;11.10;99.90;;;;;;4897766;29;20227;-72
2023/12/10 13:11:48;;;;;;;8.27;1.67;;;11.00;99.90;;;;;;4898878;29;20266;-71
2023/12/10 13:14:15;;;;;;;7.97;1.20;;;10.90;99.90;;;;;;4898531;29;20206;-71
2023/12/10 13:16:43;;;;;;;5.63;1.03;;;10.90;99.90;;;;;;4898436;29;20243;-72
2023/12/10 13:21:43;;;;;;;3.90;0.80;;;10.90;99.90;;;;;;4896387;29;20254;-69
2023/12/10 13:24:12;;;;;;;15.17;1.67;;;11.00;99.90;;;;;;4886660;29;20648;-69
2023/12/10 13:26:39;;;;;;;9.70;1.40;;;11.00;99.90;;;;;;4891839;29;20297;-69
2023/12/10 13:29:06;;;;;;;7.63;1.23;;;10.90;99.90;;;;;;4898005;29;20245;-70
2023/12/10 13:31:33;;;;;;;7.10;1.33;;;10.90;99.90;;;;;;4898646;29;20229;-69
2023/12/10 13:34:00;;;;;;;10.83;2.10;;;11.00;99.90;;;;;;4898152;29;20210;-69
2023/12/10 13:36:27;;;;;;;3.23;1.60;;;11.00;99.90;;;;;;4898854;29;20253;-69
2023/12/10 13:38:54;;;;;;;7.53;1.60;;;10.80;99.90;;;;;;4898201;29;20661;-70
2023/12/10 13:41:24;;;;;;;7.43;1.20;;;10.80;99.90;;;;;;4898750;29;20266;-69
2023/12/10 13:43:51;;;;;;;9.53;1.10;;;10.70;99.90;;;;;;4898444;29;20234;-69
2023/12/10 13:46:19;;;;;;;11.50;1.40;;;10.70;99.90;;;;;;4898414;29;20221;-69
2023/12/10 13:48:46;;;;;;;5.43;1.13;;;10.70;99.90;;;;;;4898921;29;20214;-69
2023/12/10 13:51:13;;;;;;;3.27;0.90;;;10.70;99.90;;;;;;4898077;29;20318;-70
2023/12/10 13:53:40;;;;;;;8.80;0.97;;;10.60;99.90;;;;;;4898402;29;20214;-70
2023/12/10 13:56:08;;;;;;;12.33;1.40;;;10.50;99.90;;;;;;4896256;29;20298;-69
2023/12/10 13:58:36;;;;;;;6.10;1.00;;;10.40;99.90;;;;;;4890655;29;20221;-70
2023/12/10 14:01:04;;;;;;;5.77;1.00;;;10.40;99.90;;;;;;4898451;29;20725;-70
2023/12/10 14:03:31;;;;;;;9.83;1.00;;;10.40;99.90;;;;;;4897198;29;20206;-69
2023/12/10 14:05:58;;;;;;;7.47;1.00;;;10.40;99.90;;;;;;4897562;29;20309;-70
2023/12/10 14:08:25;;;;;;;1.80;0.50;;;10.40;99.90;;;;;;4891891;29;20295;-70
2023/12/10 14:10:53;;;;;;;7.90;1.00;;;10.40;99.90;;;;;;4897544;29;20238;-73
2023/12/10 14:13:20;;;;;;;2.77;0.93;;;10.30;99.90;;;;;;4898012;29;20666;-70
2023/12/10 14:15:48;;;;;;;4.70;1.00;;;10.30;99.90;;;;;;4900975;29;20202;-72
2023/12/10 14:18:15;;;;;;;4.83;0.60;;;10.30;99.90;;;;;;4902464;29;20249;-68
2023/12/10 14:20:44;;;;;;;5.40;1.37;;;10.30;99.90;;;;;;4897733;29;20240;-69
2023/12/10 14:23:11;;;;;;;7.03;1.07;;;10.30;99.90;;;;;;4897938;29;20643;-73
2023/12/10 14:25:39;;;;;;;1.57;0.70;;;10.30;99.90;;;;;;4896830;29;20278;-73
2023/12/10 14:28:07;;;;;;;3.37;0.87;;;10.30;99.90;;;;;;4897952;29;20313;-74
2023/12/10 14:30:34;;;;;;;8.23;1.07;;;10.20;99.90;;;;;;4897957;29;20230;-73
2023/12/10 14:33:02;;;;;;;6.47;0.73;;;10.30;99.90;;;;;;4898327;29;20555;-70
2023/12/10 14:35:29;;;;;;;8.73;0.90;;;10.20;99.90;;;;;;4897914;29;20218;-69
2023/12/10 14:37:56;;;;;;;5.53;0.87;;;10.20;99.90;;;;;;4897769;29;20673;-70
2023/12/10 14:40:23;;;;;;;4.93;0.93;;;10.20;99.90;;;;;;4897881;29;20266;-69
2023/12/10 14:42:50;;;;;;;2.47;0.60;;;10.20;99.90;;;;;;4897998;29;20213;-69
2023/12/10 14:45:18;;;;;;;7.13;1.00;;;10.20;99.90;;;;;;4897712;29;20274;-69
2023/12/10 14:47:45;;;;;;;3.67;0.90;;;10.30;99.90;;;;;;4897919;29;20210;-69
2023/12/10 14:50:13;;;;;;;6.60;1.30;;;10.30;99.90;;;;;;4897754;29;20282;-69
2023/12/10 14:52:40;;;;;;;6.03;1.07;;;10.30;99.90;;;;;;4897796;29;20210;-70
2023/12/10 14:55:08;;;;;;;7.57;1.30;;;10.30;99.90;;;;;;4898033;29;20254;-70
2023/12/10 14:57:35;;;;;;;7.37;1.03;;;10.30;99.90;;;;;;4897759;29;20309;-68
2023/12/10 15:00:04;;;;;;;3.67;0.87;;;10.30;99.90;;;;;;4897728;29;20235;-70
2023/12/10 15:02:31;;;;;;;13.97;1.40;;;10.30;99.90;;;;;;4897924;29;20217;-68
2023/12/10 15:04:58;;;;;;;8.53;1.53;;;10.30;99.90;;;;;;4897776;29;20238;-70
2023/12/10 15:07:27;;;;;;;3.43;0.97;;;10.30;99.90;;;;;;4898187;29;20210;-70
2023/12/10 15:09:54;;;;;;;4.03;1.60;;;10.30;99.90;;;;;;4897575;29;20254;-72
2023/12/10 15:12:22;;;;;;;6.43;0.83;;;10.30;99.90;;;;;;4898297;29;20270;-70
2023/12/10 15:14:49;;;;;;;6.50;0.80;;;10.30;99.90;;;;;;4898593;29;20214;-72
2023/12/10 15:17:16;;;;;;;4.27;1.00;;;10.20;99.90;;;;;;4900866;29;20211;-70
2023/12/10 15:19:43;;;;;;;2.20;0.57;;;10.30;99.90;;;;;;4901258;29;20261;-71
2023/12/10 15:22:11;;;;;;;3.87;0.50;;;10.20;99.90;;;;;;4896968;29;20206;-72
2023/12/10 15:24:39;;;;;;;4.60;1.20;;;10.20;99.90;;;;;;4899463;29;20301;-72
2023/12/10 15:27:06;;;;;;;9.93;0.90;;;10.20;99.90;;;;;;4903623;29;20213;-73
2023/12/10 15:29:33;;;;;;;1.90;0.93;;;10.10;99.90;;;;;;4914339;29;20234;-72
2023/12/10 15:32:00;;;;;;;5.77;1.00;;;10.00;99.90;;;;;;4908780;29;20271;-73
2023/12/10 15:34:29;;;;;;;3.07;0.77;;;10.00;99.90;;;;;;4899584;29;20213;-74
2023/12/10 15:36:56;;;;;;;6.73;0.83;;;9.90;99.90;;;;;;4899413;29;20310;-72
2023/12/10 15:39:23;;;;;;;6.33;0.97;;;9.70;99.90;;;;;;4899494;29;20610;-72
2023/12/10 15:41:52;;;;;;;4.80;1.23;;;9.60;99.90;;;;;;4900261;29;20737;-71
2023/12/10 15:44:20;;;;;;;5.00;0.90;;;9.50;99.90;;;;;;4901195;29;20238;-72
2023/12/10 15:46:47;;;;;;;1.07;0.80;;;9.50;99.90;;;;;;4901612;29;20585;-71
2023/12/10 15:49:15;;;;;;;4.70;1.00;;;9.40;99.90;;;;;;4901109;29;20253;-70
2023/12/10 15:51:42;;;;;;;4.87;0.87;;;9.30;99.90;;;;;;4901019;29;20215;-71
2023/12/10 15:54:09;;;;;;;4.07;0.77;;;9.30;99.90;;;;;;4907368;29;20562;-70
2023/12/10 15:56:36;;;;;;;6.70;0.93;;;9.30;99.90;;;;;;4919579;29;20218;-70
2023/12/10 15:59:05;;;;;;;7.90;1.10;;;9.20;99.90;;;;;;4919341;29;20210;-70
2023/12/10 16:01:32;;;;;;;5.23;1.00;;;9.20;99.90;;;;;;4918958;29;20269;-70
2023/12/10 16:03:59;;;;;;;6.20;1.43;;;9.30;99.90;;;;;;4918824;29;20213;-70
2023/12/10 16:06:26;;;;;;;3.43;0.50;;;9.30;99.90;;;;;;4918632;29;20580;-71
2023/12/10 16:08:53;;;;;;;3.80;0.50;;;9.30;99.90;;;;;;4917376;29;20261;-71
2023/12/10 16:11:20;;;;;;;7.13;1.00;;;9.20;99.90;;;;;;4918605;29;20230;-71
2023/12/10 16:13:47;;;;;;;4.27;0.83;;;9.20;99.90;;;;;;4918471;29;20293;-73
2023/12/10 16:16:16;;;;;;;6.17;0.97;;;9.20;99.90;;;;;;4918848;29;20212;-73
2023/12/10 16:18:43;;;;;;;6.17;0.90;;;9.20;99.90;;;;;;4918211;29;20681;-71
2023/12/10 16:21:10;;;;;;;5.67;0.90;;;9.10;99.90;;;;;;4917492;29;20304;-73
2023/12/10 16:23:37;;;;;;;2.67;0.93;;;9.10;99.90;;;;;;4918753;29;20233;-72
2023/12/10 16:26:04;;;;;;;6.67;1.40;;;9.10;99.90;;;;;;4917784;29;20759;-73
2023/12/10 16:28:31;;;;;;;5.37;0.70;;;9.10;99.90;;;;;;4918816;29;20214;-73
2023/12/10 16:30:58;;;;;;;6.97;1.00;;;9.10;99.90;;;;;;4918819;29;20240;-72
2023/12/10 16:33:27;;;;;;;4.67;0.83;;;9.10;99.90;;;;;;4918961;29;20609;-71
2023/12/10 16:35:54;;;;;;;2.33;1.40;;;9.00;99.90;;;;;;4918723;29;20577;-72
2023/12/10 16:38:21;;;;;;;2.20;0.60;;;9.00;99.90;;;;;;4918650;29;20210;-72
2023/12/10 16:40:48;;;;;;;1.90;0.67;;;9.00;99.90;;;;;;4918442;29;20700;-71
2023/12/10 16:43:16;;;;;;;6.20;0.80;;;9.00;99.90;;;;;;4918776;29;20564;-71
2023/12/10 16:45:43;;;;;;;3.73;0.93;;;8.90;99.90;;;;;;4918700;29;20477;-72
2023/12/10 16:48:10;;;;;;;5.73;0.50;;;8.90;99.90;;;;;;4918713;29;20225;-72
2023/12/10 16:50:39;;;;;;;3.30;0.70;;;8.90;99.90;;;;;;4918463;29;20598;-71
2023/12/10 16:53:06;;;;;;;0.70;0.33;;;8.90;99.90;;;;;;4918415;29;20266;-72
2023/12/10 16:55:33;;;;;;;6.00;0.60;;;8.90;99.90;;;;;;4918096;29;20212;-72
2023/12/10 16:58:00;;;;;;;1.17;0.40;;;8.90;99.90;;;;;;4918404;29;20210;-72
2023/12/10 17:00:27;;;;;;;1.43;0.40;;;9.00;99.90;;;;;;4918348;29;20265;-71
2023/12/10 17:02:54;;;;;;;2.17;1.00;;;9.00;99.90;;;;;;4918368;29;20206;-72
2023/12/10 17:05:21;;;;;;;2.87;0.50;;;9.00;99.90;;;;;;4918293;29;20245;-72
2023/12/10 17:07:49;;;;;;;3.77;0.50;;;9.10;99.90;;;;;;4918243;29;20629;-72
2023/12/10 17:10:16;;;;;;;1.80;0.40;;;9.10;99.90;;;;;;4918396;29;20312;-71
2023/12/10 17:12:44;;;;;;;2.53;0.63;;;9.10;99.90;;;;;;4918370;29;20312;-72
2023/12/10 17:15:11;;;;;;;1.93;0.43;;;9.20;99.90;;;;;;4918147;29;20221;-72
2023/12/10 17:17:38;;;;;;;1.40;0.50;;;9.20;99.90;;;;;;4918260;29;20209;-72
2023/12/10 17:20:06;;;;;;;2.60;0.60;;;9.30;99.90;;;;;;4917876;29;20605;-72
2023/12/10 17:22:33;;;;;;;3.10;0.63;;;9.30;99.90;;;;;;4918506;29;20265;-72
2023/12/10 17:25:02;;;;;;;1.00;0.83;;;9.30;99.90;;;;;;4918714;29;20325;-72
2023/12/10 17:27:29;;;;;;;0.80;0.57;;;9.40;99.90;;;;;;4918950;29;20217;-72
2023/12/10 17:29:57;;;;;;;0.50;0.30;;;9.50;99.90;;;;;;4918729;29;20233;-71
2023/12/10 17:32:24;;;;;;;2.97;0.60;;;9.50;99.90;;;;;;4919095;29;20213;-72
2023/12/10 17:34:51;;;;;;;3.57;1.10;;;9.50;99.90;;;;;;4918197;29;20249;-72
2023/12/10 17:37:18;;;;;;;4.17;0.67;;;9.60;99.90;;;;;;4917363;29;20610;-71
2023/12/10 17:39:45;;;;;;;5.73;0.80;;;9.60;99.90;;;;;;4917689;29;20233;-73
2023/12/10 17:42:14;;;;;;;1.60;0.40;;;9.60;99.90;;;;;;4918086;29;20218;-72
2023/12/10 17:44:41;;;;;;;4.93;0.57;;;9.70;99.90;;;;;;4917537;29;20669;-72
2023/12/10 17:47:08;;;;;;;2.47;1.70;;;9.70;99.90;;;;;;4917916;29;20224;-71
2023/12/10 17:49:35;;;;;;;2.10;0.60;;;9.70;99.90;;;;;;4917719;29;20233;-72
2023/12/10 17:52:02;;;;;;;1.20;0.47;;;9.70;99.90;;;;;;4917601;29;20209;-72
2023/12/10 17:54:29;;;;;;;3.60;0.57;;;9.80;99.90;;;;;;4917718;29;20216;-72
2023/12/10 17:56:56;;;;;;;1.23;0.50;;;9.80;99.90;;;;;;4917634;29;20232;-72
2023/12/10 17:59:25;;;;;;;2.40;0.53;;;9.80;99.90;;;;;;4917562;29;20289;-72
2023/12/10 18:01:52;;;;;;;1.43;0.63;;;9.80;99.90;;;;;;4917127;29;20565;-72
2023/12/10 18:04:19;;;;;;;5.80;0.77;;;9.90;99.90;;;;;;4917263;29;20241;-73
2023/12/10 18:06:46;;;;;;;1.90;0.60;;;10.00;99.90;;;;;;4917427;29;20244;-72
2023/12/10 18:09:13;;;;;;;1.60;0.70;;;10.10;99.90;;;;;;4917201;29;20220;-71
2023/12/10 18:11:41;;;;;;;1.47;0.53;;;10.10;99.90;;;;;;4919061;29;20261;-72
2023/12/10 18:14:09;;;;;;;3.53;0.80;;;10.20;99.90;;;;;;4920749;29;20740;-72
2023/12/10 18:16:37;;;;;;;1.50;0.60;;;10.30;99.90;;;;;;4918701;29;20232;-72
2023/12/10 18:19:04;;;;;;;2.07;0.90;;;10.40;99.90;;;;;;4916982;29;20216;-73
2023/12/10 18:21:32;;;;;;;3.23;2.10;;;10.40;99.90;;;;;;4916630;29;20226;-72
2023/12/10 18:23:59;;;;;;;1.63;0.60;;;10.50;99.90;;;;;;4916827;29;20228;-73
2023/12/10 18:26:26;;;;;;;4.27;1.03;;;10.50;99.90;;;;;;4916696;29;20273;-72
2023/12/10 18:28:53;;;;;;;2.00;0.60;;;10.50;99.90;;;;;;4916630;29;20209;-72
2023/12/10 18:31:20;;;;;;;5.90;0.77;;;10.60;99.90;;;;;;4916536;29;20321;-73
2023/12/10 18:33:48;;;;;;;2.10;0.93;;;10.60;99.90;;;;;;4916998;29;20679;-72
2023/12/10 18:36:15;;;;;;;6.87;1.33;;;10.70;99.90;;;;;;4917026;29;20224;-72
2023/12/10 18:38:42;;;;;;;3.27;1.13;;;10.70;99.90;;;;;;4916663;29;20217;-71
2023/12/10 18:41:09;;;;;;;2.37;0.70;;;10.70;99.90;;;;;;4916781;29;20249;-72
2023/12/10 18:43:36;;;;;;;2.10;0.70;;;10.70;99.90;;;;;;4916773;29;20218;-71
2023/12/10 18:46:03;;;;;;;7.70;0.80;;;10.80;99.90;;;;;;4916666;29;20595;-72
2023/12/10 18:48:30;;;;;;;1.43;0.77;;;10.80;99.90;;;;;;4916883;29;20621;-72
2023/12/10 18:51:00;;;;;;;2.27;1.40;;;10.90;99.90;;;;;;4919619;29;20235;-72
2023/12/10 18:53:27;;;;;;;4.43;1.33;;;10.90;99.90;;;;;;4920813;29;20300;-71
2023/12/10 18:55:54;;;;;;;1.57;0.70;;;10.90;99.90;;;;;;4920574;29;20213;-72
2023/12/10 18:58:21;;;;;;;1.73;0.77;;;11.00;99.90;;;;;;4920649;29;20217;-72
2023/12/10 19:00:48;;;;;;;1.17;0.70;;;11.00;99.90;;;;;;4920325;29;20376;-71
2023/12/10 19:03:15;;;;;;;3.13;1.30;;;11.00;99.90;;;;;;4920473;29;20220;-72
2023/12/10 19:05:42;;;;;;;3.77;0.70;;;11.10;99.90;;;;;;4920416;29;20241;-73
2023/12/10 19:08:11;;;;;;;1.87;0.77;;;11.20;99.90;;;;;;4920540;29;20277;-71
2023/12/10 19:10:38;;;;;;;6.23;1.23;;;11.20;99.90;;;;;;4919812;29;20226;-73
2023/12/10 19:13:05;;;;;;;2.57;0.70;;;11.20;99.90;;;;;;4920074;29;20216;-72
2023/12/10 19:15:32;;;;;;;5.23;1.20;;;11.30;99.90;;;;;;4920090;29;20217;-72
2023/12/10 19:17:59;;;;;;;4.07;0.80;;;11.30;99.90;;;;;;4920069;29;20220;-72
2023/12/10 19:20:27;;;;;;;3.57;1.10;;;11.30;99.90;;;;;;4920357;29;20245;-72
2023/12/10 19:22:54;;;;;;;2.27;1.03;;;11.30;99.90;;;;;;4919971;29;20264;-72
2023/12/10 19:25:22;;;;;;;1.43;0.70;;;11.30;99.90;;;;;;4907852;29;20257;-72
2023/12/10 19:27:49;;;;;;;3.03;1.10;;;11.30;99.90;;;;;;4900293;29;20207;-73
2023/12/10 19:30:16;;;;;;;2.43;0.90;;;11.40;99.90;;;;;;4899842;29;20234;-72
2023/12/10 19:32:44;;;;;;;1.23;0.80;;;11.50;99.90;;;;;;4897283;29;20207;-73
2023/12/10 19:35:11;;;;;;;3.53;1.00;;;11.40;99.90;;;;;;4899932;29;20209;-73
2023/12/10 19:37:38;;;;;;;7.27;1.07;;;11.40;99.90;;;;;;4899884;29;20218;-73
2023/12/10 19:40:06;;;;;;;2.80;0.80;;;11.40;99.90;;;;;;4899439;29;20230;-70
2023/12/10 19:42:35;;;;;;;5.13;0.97;;;11.40;99.90;;;;;;4899968;29;20218;-70
2023/12/10 19:45:03;;;;;;;2.80;1.00;;;11.50;99.90;;;;;;4899494;29;20218;-71
2023/12/10 19:47:30;;;;;;;5.13;1.10;;;11.50;99.90;;;;;;4899680;29;20207;-71
2023/12/10 19:49:57;;;;;;;2.30;1.17;;;11.50;99.90;;;;;;4899792;29;20234;-71
2023/12/10 19:52:24;;;;;;;1.70;1.00;;;11.40;99.90;;;;;;4899324;29;20262;-71
2023/12/10 19:54:51;;;;;;;6.47;1.10;;;11.40;99.90;;;;;;4897497;29;20670;-70
2023/12/10 19:57:18;;;;;;;3.47;0.70;;;11.40;99.90;;;;;;4889998;29;20221;-70
2023/12/10 19:59:46;;;;;;;3.63;1.20;;;11.30;99.90;;;;;;4899158;29;20227;-70
2023/12/10 20:02:13;;;;;;;3.83;0.90;;;11.30;99.90;;;;;;4899341;29;20211;-70
2023/12/10 20:04:40;;;;;;;5.30;0.77;;;11.30;99.90;;;;;;4899350;29;20214;-71
2023/12/10 20:07:07;;;;;;;3.73;0.90;;;11.20;99.90;;;;;;4899890;29;20234;-73
2023/12/10 20:09:36;;;;;;;6.97;0.87;;;11.20;99.90;;;;;;4899164;29;20222;-73
2023/12/10 20:12:03;;;;;;;5.10;0.97;;;11.20;99.90;;;;;;4892036;29;20207;-72
2023/12/10 20:14:32;;;;;;;3.60;1.00;;;11.10;99.90;;;;;;4899637;29;20215;-71